createdAt,value
2019-03-13T00:00:54.182Z,1.50
2019-03-13T00:03:20.804Z,1.30
2019-03-13T00:05:50.006Z,1.20
2019-03-13T00:08:19.017Z,1.30
2019-03-13T00:10:47.489Z,1.50
2019-03-13T00:13:16.017Z,1.30
2019-03-13T00:15:42.482Z,1.20
2019-03-13T00:18:08.677Z,1.23
2019-03-13T00:20:35.927Z,1.40
2019-03-13T00:23:02.595Z,1.40
2019-03-13T00:25:28.665Z,1.37
2019-03-13T00:28:02.294Z,1.30
2019-03-13T00:30:28.402Z,1.40
2019-03-13T00:32:56.557Z,2.13
2019-03-13T00:35:24.996Z,2.40
2019-03-13T00:37:51.187Z,11.07
2019-03-13T00:40:18.814Z,3.67
2019-03-13T00:42:46.918Z,4.70
2019-03-13T00:45:14.571Z,2.33
2019-03-13T00:47:41.510Z,2.67
2019-03-13T00:50:15.518Z,1.67
2019-03-13T00:52:41.629Z,1.70
2019-03-13T00:55:11.941Z,1.70
2019-03-13T00:57:38.884Z,1.60
2019-03-13T01:00:09.695Z,1.47
2019-03-13T01:02:37.841Z,1.53
2019-03-13T01:05:07.379Z,1.47
2019-03-13T01:07:36.776Z,1.77
2019-03-13T01:10:06.178Z,1.60
2019-03-13T01:12:32.437Z,1.90
2019-03-13T01:15:04.525Z,1.80
2019-03-13T01:17:30.635Z,1.80
2019-03-13T01:19:56.691Z,1.70
2019-03-13T01:22:24.137Z,1.70
2019-03-13T01:24:50.270Z,1.67
2019-03-13T01:27:16.586Z,1.87
2019-03-13T01:29:42.863Z,1.80
2019-03-13T01:32:10.940Z,1.80
2019-03-13T01:34:39.047Z,1.77
2019-03-13T01:37:05.234Z,2.37
2019-03-13T01:39:32.706Z,1.53
2019-03-13T01:42:01.919Z,2.00
2019-03-13T01:44:33.050Z,2.30
2019-03-13T01:46:59.516Z,2.03
2019-03-13T01:49:27.024Z,1.90
2019-03-13T01:51:57.207Z,1.90
2019-03-13T01:54:28.155Z,2.00
2019-03-13T01:56:55.866Z,2.10
2019-03-13T01:59:23.088Z,2.00
2019-03-13T02:01:49.636Z,2.10
2019-03-13T02:04:17.080Z,1.80
2019-03-13T02:06:44.861Z,1.87
2019-03-13T02:09:11.182Z,1.97
2019-03-13T02:11:37.482Z,1.90
2019-03-13T02:14:04.634Z,1.87
2019-03-13T02:16:31.200Z,1.80
2019-03-13T02:18:58.984Z,1.73
2019-03-13T02:21:25.016Z,1.67
2019-03-13T02:23:53.793Z,1.60
2019-03-13T02:26:22.117Z,2.10
2019-03-13T02:29:18.867Z,1.90
2019-03-13T02:31:45.942Z,1.70
2019-03-13T02:34:13.478Z,1.83
2019-03-13T02:36:39.535Z,1.60
2019-03-13T02:39:10.410Z,1.80
2019-03-13T02:41:36.491Z,1.60
2019-03-13T02:44:03.506Z,1.63
2019-03-13T02:46:29.750Z,1.80
2019-03-13T02:48:57.855Z,1.90
2019-03-13T02:51:23.998Z,2.27
2019-03-13T02:53:51.391Z,1.70
2019-03-13T02:56:17.680Z,1.67
2019-03-13T02:58:48.163Z,1.90
2019-03-13T03:01:21.696Z,2.07
2019-03-13T03:03:53.733Z,1.60
2019-03-13T03:06:20.924Z,1.83
2019-03-13T03:08:47.310Z,1.53
2019-03-13T03:11:13.574Z,1.60
2019-03-13T03:13:40.825Z,1.80
2019-03-13T03:16:07.047Z,1.43
2019-03-13T03:18:33.264Z,1.57
2019-03-13T03:21:00.957Z,1.73
2019-03-13T03:23:27.078Z,1.73
2019-03-13T03:25:53.287Z,1.70
2019-03-13T03:28:19.907Z,1.70
2019-03-13T03:30:46.266Z,1.60
2019-03-13T03:33:12.455Z,1.40
2019-03-13T03:35:38.645Z,1.40
2019-03-13T03:38:06.518Z,1.80
2019-03-13T03:40:38.780Z,1.33
2019-03-13T03:43:06.380Z,1.53
2019-03-13T03:45:32.915Z,1.47
2019-03-13T03:48:04.031Z,1.60
2019-03-13T03:50:30.228Z,1.60
2019-03-13T03:52:59.262Z,1.40
2019-03-13T03:55:28.823Z,2.13
2019-03-13T03:57:55.260Z,1.47
2019-03-13T04:00:21.570Z,1.43
2019-03-13T04:02:47.719Z,1.40
2019-03-13T04:05:17.174Z,1.43
2019-03-13T04:07:45.387Z,1.60
2019-03-13T04:10:18.980Z,1.43
2019-03-13T04:12:45.277Z,1.30
2019-03-13T04:15:13.307Z,2.77
2019-03-13T04:17:39.413Z,1.30
2019-03-13T04:20:10.403Z,1.73
2019-03-13T04:22:37.021Z,1.30
2019-03-13T04:25:11.915Z,1.27
2019-03-13T04:27:39.181Z,1.60
2019-03-13T04:30:09.433Z,1.50
2019-03-13T04:32:38.962Z,1.57
2019-03-13T04:35:05.753Z,1.53
2019-03-13T04:37:32.174Z,1.37
2019-03-13T04:39:58.396Z,1.50
2019-03-13T04:42:25.585Z,1.70
2019-03-13T04:44:51.823Z,1.70
2019-03-13T04:47:18.118Z,1.60
2019-03-13T04:49:44.283Z,1.40
2019-03-13T04:52:10.482Z,1.77
2019-03-13T04:54:36.651Z,1.80
2019-03-13T04:57:11.962Z,1.70
2019-03-13T04:59:38.269Z,1.73
2019-03-13T05:02:04.517Z,1.83
2019-03-13T05:04:31.702Z,2.17
2019-03-13T05:06:57.930Z,2.10
2019-03-13T05:09:27.855Z,2.20
2019-03-13T05:11:54.186Z,2.10
2019-03-13T05:14:20.403Z,2.57
2019-03-13T05:16:46.743Z,2.20
2019-03-13T05:19:14.039Z,2.47
2019-03-13T05:21:42.286Z,2.17
2019-03-13T05:24:08.358Z,2.70
2019-03-13T05:26:35.715Z,2.50
2019-03-13T05:29:01.856Z,2.10
2019-03-13T05:31:29.232Z,2.60
2019-03-13T05:33:55.671Z,2.67
2019-03-13T05:36:26.719Z,3.00
2019-03-13T05:38:55.478Z,4.33
2019-03-13T05:41:21.844Z,2.83
2019-03-13T05:43:51.246Z,2.73
2019-03-13T05:46:19.237Z,3.53
2019-03-13T05:48:46.749Z,4.00
2019-03-13T05:51:12.974Z,4.20
2019-03-13T05:53:39.504Z,2.90
2019-03-13T05:56:07.086Z,3.63
2019-03-13T05:58:33.513Z,3.60
2019-03-13T06:01:00.865Z,6.30
2019-03-13T06:03:29.235Z,3.67
2019-03-13T06:05:55.658Z,4.57
2019-03-13T06:08:22.773Z,4.93
2019-03-13T06:10:50.475Z,4.17
2019-03-13T06:13:16.538Z,4.47
2019-03-13T06:15:43.571Z,4.00
2019-03-13T06:18:10.226Z,3.77
2019-03-13T06:20:37.021Z,4.10
2019-03-13T06:23:03.211Z,4.10
2019-03-13T06:25:29.375Z,4.17
2019-03-13T06:27:59.035Z,5.67
2019-03-13T06:30:25.338Z,4.30
2019-03-13T06:32:52.156Z,3.90
2019-03-13T06:35:23.536Z,4.50
2019-03-13T06:37:49.133Z,4.37
2019-03-13T06:40:19.152Z,3.80
2019-03-13T06:42:49.769Z,3.40
2019-03-13T06:45:16.717Z,3.30
2019-03-13T06:47:43.049Z,3.20
2019-03-13T06:50:12.256Z,3.27
2019-03-13T06:52:40.332Z,4.20
2019-03-13T06:55:07.061Z,3.90
2019-03-13T06:57:36.144Z,4.03
2019-03-13T07:00:26.051Z,3.67
2019-03-13T07:02:54.522Z,3.90
2019-03-13T07:05:25.379Z,3.70
2019-03-13T07:08:02.440Z,4.40
2019-03-13T07:10:36.351Z,3.03
2019-03-13T07:13:22.352Z,3.10
2019-03-13T07:15:51.124Z,3.57
2019-03-13T07:18:37.098Z,3.10
2019-03-13T07:21:11.338Z,3.20
2019-03-13T07:23:54.819Z,2.40
2019-03-13T07:26:27.347Z,2.70
2019-03-13T07:29:16.252Z,3.00
2019-03-13T07:31:47.099Z,2.90
2019-03-13T07:34:17.809Z,3.33
2019-03-13T07:36:58.907Z,2.73
2019-03-13T07:39:34.495Z,2.53
2019-03-13T07:42:17.406Z,2.87
2019-03-13T07:44:48.095Z,3.73
2019-03-13T07:47:31.456Z,2.67
2019-03-13T07:50:06.326Z,3.10
2019-03-13T07:52:51.103Z,3.40
2019-03-13T07:55:33.109Z,3.73
2019-03-13T07:58:01.148Z,3.43
2019-03-13T08:00:38.315Z,3.50
2019-03-13T08:03:24.621Z,2.73
2019-03-13T08:05:52.712Z,2.93
2019-03-13T08:08:21.151Z,3.50
2019-03-13T08:11:05.666Z,2.77
2019-03-13T08:13:51.396Z,2.60
2019-03-13T08:16:22.370Z,2.70
2019-03-13T08:19:05.387Z,2.40
2019-03-13T08:21:45.093Z,3.30
2019-03-13T08:24:16.170Z,3.00
2019-03-13T08:26:56.083Z,2.50
2019-03-13T08:29:41.790Z,3.17
2019-03-13T08:32:20.880Z,2.70
2019-03-13T08:34:56.398Z,3.40
2019-03-13T08:37:42.047Z,3.00
2019-03-13T08:40:18.811Z,2.80
2019-03-13T08:42:45.716Z,3.70
2019-03-13T08:45:17.350Z,3.23
2019-03-13T08:48:01.946Z,2.80
2019-03-13T08:50:34.695Z,3.00
2019-03-13T08:53:22.472Z,3.07
2019-03-13T08:56:02.157Z,3.23
2019-03-13T08:58:44.124Z,3.33
2019-03-13T09:01:26.914Z,2.67
2019-03-13T09:04:13.217Z,3.53
2019-03-13T09:06:42.432Z,2.47
2019-03-13T09:09:16.155Z,2.70
2019-03-13T09:11:44.226Z,4.27
2019-03-13T09:14:20.974Z,4.73
2019-03-13T09:17:05.328Z,2.90
2019-03-13T09:19:35.528Z,2.60
2019-03-13T09:22:20.304Z,2.90
2019-03-13T09:25:11.958Z,4.87
2019-03-13T09:27:35.792Z,3.70
2019-03-13T09:30:18.427Z,3.37
2019-03-13T09:32:46.590Z,2.90
2019-03-13T09:35:31.251Z,3.50
2019-03-13T09:37:59.316Z,3.00
2019-03-13T09:40:37.095Z,3.23
2019-03-13T09:43:21.595Z,3.50
2019-03-13T09:45:55.483Z,3.43
2019-03-13T09:48:23.448Z,3.83
2019-03-13T09:50:57.699Z,2.80
2019-03-13T09:53:30.757Z,3.20
2019-03-13T09:56:11.971Z,3.13
2019-03-13T09:58:45.950Z,3.23
2019-03-13T10:01:18.509Z,2.60
2019-03-13T10:03:55.360Z,2.40
2019-03-13T10:06:32.191Z,2.63
2019-03-13T10:09:18.075Z,2.10
2019-03-13T10:11:48.908Z,2.70
2019-03-13T10:14:27.083Z,2.93
2019-03-13T10:17:10.651Z,2.70
2019-03-13T10:19:43.312Z,2.93
2019-03-13T10:22:11.695Z,2.60
2019-03-13T10:24:50.309Z,2.80
2019-03-13T10:27:21.436Z,2.70
2019-03-13T10:29:49.559Z,2.60
2019-03-13T10:32:34.045Z,3.07
2019-03-13T10:35:04.747Z,3.17
2019-03-13T10:37:34.734Z,2.50
2019-03-13T10:40:03.206Z,3.03
2019-03-13T10:42:41.469Z,3.10
2019-03-13T10:45:21.625Z,2.40
2019-03-13T10:47:55.570Z,2.73
2019-03-13T10:50:40.454Z,2.80
2019-03-13T10:53:26.090Z,3.10
2019-03-13T10:56:12.460Z,2.93
2019-03-13T10:58:58.641Z,2.70
2019-03-13T11:01:29.882Z,2.97
2019-03-13T11:04:17.793Z,2.43
2019-03-13T11:06:55.500Z,3.07
2019-03-13T11:09:23.853Z,3.17
2019-03-13T11:11:53.870Z,2.73
2019-03-13T11:14:32.780Z,2.70
2019-03-13T11:17:01.003Z,5.50
2019-03-13T11:19:37.860Z,4.20
2019-03-13T11:22:08.724Z,2.93
2019-03-13T11:24:36.896Z,3.13
2019-03-13T11:27:05.076Z,4.33
2019-03-13T11:29:43.084Z,4.47
2019-03-13T11:32:14.269Z,4.03
2019-03-13T11:34:50.248Z,5.23
2019-03-13T11:37:18.427Z,2.87
2019-03-13T11:39:49.714Z,3.10
2019-03-13T11:42:17.949Z,3.20
2019-03-13T11:44:55.470Z,2.43
2019-03-13T11:47:41.713Z,3.10
2019-03-13T11:50:00.368Z,2.90
2019-03-13T11:52:37.020Z,2.90
2019-03-13T11:55:25.961Z,4.07
2019-03-13T11:58:07.622Z,3.87
2019-03-13T12:00:47.832Z,2.83
2019-03-13T12:03:33.777Z,3.43
2019-03-13T12:06:07.582Z,3.23
2019-03-13T12:08:37.664Z,2.60
2019-03-13T12:11:17.654Z,4.23
2019-03-13T12:13:53.625Z,3.10
2019-03-13T12:16:21.583Z,2.70
2019-03-13T12:18:50.864Z,3.10
2019-03-13T12:21:30.946Z,3.47
2019-03-13T12:24:15.640Z,3.60
2019-03-13T12:26:49.415Z,3.03
2019-03-13T12:29:23.235Z,4.47
2019-03-13T12:31:54.058Z,3.07
2019-03-13T12:34:23.217Z,4.00
2019-03-13T12:37:00.070Z,3.40
2019-03-13T12:39:32.040Z,3.47
2019-03-13T12:42:00.113Z,4.00
2019-03-13T12:44:28.038Z,2.87
2019-03-13T12:47:10.571Z,3.50
2019-03-13T12:49:44.661Z,4.73
2019-03-13T12:52:33.001Z,3.40
2019-03-13T12:55:02.623Z,3.67
2019-03-13T12:57:42.322Z,3.23
2019-03-13T13:00:23.295Z,3.53
2019-03-13T13:03:01.500Z,3.53
2019-03-13T13:05:50.205Z,3.97
2019-03-13T13:08:30.217Z,3.17
2019-03-13T13:11:33.490Z,3.70
2019-03-13T13:14:02.798Z,4.10
2019-03-13T13:16:40.248Z,3.40
2019-03-13T13:19:11.066Z,3.30
2019-03-13T13:21:37.344Z,3.70
2019-03-13T13:24:04.237Z,3.17
2019-03-13T13:26:32.289Z,4.00
2019-03-13T13:29:04.522Z,3.30
2019-03-13T13:31:32.216Z,3.00
2019-03-13T13:33:58.642Z,3.37
2019-03-13T13:36:26.904Z,3.20
2019-03-13T13:38:55.302Z,3.90
2019-03-13T13:41:21.436Z,3.23
2019-03-13T13:43:50.264Z,3.37
2019-03-13T13:46:22.281Z,2.87
2019-03-13T13:48:48.617Z,3.20
2019-03-13T13:51:15.186Z,2.80
2019-03-13T13:53:43.543Z,3.43
2019-03-13T13:56:11.571Z,2.70
2019-03-13T13:58:38.003Z,2.93
2019-03-13T14:01:06.091Z,3.60
2019-03-13T14:03:32.235Z,3.10
2019-03-13T14:05:58.517Z,4.00
2019-03-13T14:08:24.638Z,2.77
2019-03-13T14:10:51.178Z,3.03
2019-03-13T14:13:18.396Z,2.60
2019-03-13T14:15:46.193Z,2.53
2019-03-13T14:18:12.523Z,2.60
2019-03-13T14:20:41.005Z,3.00
2019-03-13T14:23:07.326Z,2.77
2019-03-13T14:25:33.531Z,2.67
2019-03-13T14:28:00.989Z,2.60
2019-03-13T14:30:46.380Z,2.70
2019-03-13T14:33:13.781Z,2.57
2019-03-13T14:35:40.152Z,2.80
2019-03-13T14:38:06.428Z,3.13
2019-03-13T14:40:35.926Z,2.70
2019-03-13T14:43:02.327Z,2.77
2019-03-13T14:45:31.679Z,2.97
2019-03-13T14:47:57.937Z,3.00
2019-03-13T14:50:23.980Z,3.00
2019-03-13T14:52:51.566Z,2.70
2019-03-13T14:55:17.907Z,2.70
2019-03-13T14:57:44.446Z,2.67
2019-03-13T15:00:21.645Z,2.60
2019-03-13T15:02:48.220Z,2.70
2019-03-13T15:05:16.764Z,3.23
2019-03-13T15:07:43.079Z,2.43
2019-03-13T15:10:13.871Z,2.70
2019-03-13T15:12:42.907Z,4.20
2019-03-13T15:15:11.044Z,3.27
2019-03-13T15:17:37.214Z,3.87
2019-03-13T15:20:07.437Z,3.10
2019-03-13T15:22:34.372Z,5.07
2019-03-13T15:25:04.034Z,3.97
2019-03-13T15:27:37.659Z,3.10
2019-03-13T15:30:07.627Z,3.10
2019-03-13T15:32:33.968Z,3.30
2019-03-13T15:35:00.413Z,2.90
2019-03-13T15:37:26.661Z,3.63
2019-03-13T15:39:53.860Z,2.90
2019-03-13T15:42:21.209Z,3.60
2019-03-13T15:44:48.522Z,3.20
2019-03-13T15:47:14.957Z,3.40
2019-03-13T15:49:42.184Z,3.50
2019-03-13T15:52:08.482Z,4.17
2019-03-13T15:54:34.987Z,3.63
2019-03-13T15:57:02.325Z,3.57
2019-03-13T15:59:28.617Z,3.30
2019-03-13T16:01:54.725Z,3.50
2019-03-13T16:04:21.136Z,3.40
2019-03-13T16:06:48.120Z,3.40
2019-03-13T16:09:15.356Z,4.00
2019-03-13T16:11:43.346Z,3.57
2019-03-13T16:14:10.680Z,3.73
2019-03-13T16:16:38.917Z,3.70
2019-03-13T16:19:05.407Z,4.03
2019-03-13T16:21:33.796Z,4.40
2019-03-13T16:24:00.622Z,4.30
2019-03-13T16:26:26.879Z,4.30
2019-03-13T16:28:54.874Z,3.67
2019-03-13T16:31:24.759Z,4.60
2019-03-13T16:33:52.936Z,4.33
2019-03-13T16:36:19.295Z,4.07
2019-03-13T16:38:45.766Z,3.40
2019-03-13T16:41:11.949Z,4.23
2019-03-13T16:43:40.577Z,4.17
2019-03-13T16:46:06.967Z,4.10
2019-03-13T16:48:35.003Z,3.10
2019-03-13T16:51:01.138Z,3.50
2019-03-13T16:53:29.588Z,3.30
2019-03-13T16:55:55.598Z,2.67
2019-03-13T16:58:22.152Z,3.40
2019-03-13T17:00:50.621Z,2.90
2019-03-13T17:03:16.658Z,3.57
2019-03-13T17:05:45.955Z,3.33
2019-03-13T17:08:13.356Z,3.30
2019-03-13T17:10:40.051Z,4.70
2019-03-13T17:13:06.615Z,4.27
2019-03-13T17:15:32.875Z,3.73
2019-03-13T17:17:59.386Z,4.63
2019-03-13T17:20:28.375Z,4.70
2019-03-13T17:22:54.605Z,4.67
2019-03-13T17:25:30.879Z,5.30
2019-03-13T17:27:57.157Z,5.50
2019-03-13T17:30:32.520Z,5.73
2019-03-13T17:33:01.747Z,5.10
2019-03-13T17:35:30.963Z,6.40
2019-03-13T17:37:59.943Z,5.13
2019-03-13T17:40:29.233Z,6.83
2019-03-13T17:42:58.454Z,6.03
2019-03-13T17:48:13.731Z,5.53
2019-03-13T17:50:40.704Z,4.53
2019-03-13T17:53:08.124Z,3.63
2019-03-13T17:55:37.459Z,5.37
2019-03-13T17:58:03.978Z,4.00
2019-03-13T18:00:50.574Z,3.17
2019-03-13T18:03:16.850Z,3.20
2019-03-13T18:05:43.253Z,3.27
2019-03-13T18:08:09.824Z,2.77
2019-03-13T18:10:37.922Z,2.90
2019-03-13T18:13:04.208Z,2.90
2019-03-13T18:15:38.823Z,3.17
2019-03-13T18:18:04.944Z,2.60
2019-03-13T18:20:34.577Z,3.97
2019-03-13T18:23:01.382Z,3.20
2019-03-13T18:25:29.950Z,4.27
2019-03-13T18:27:59.514Z,2.90
2019-03-13T18:30:27.408Z,3.30
2019-03-13T18:32:54.135Z,3.73
2019-03-13T18:35:21.651Z,3.00
2019-03-13T18:38:02.156Z,2.83
2019-03-13T18:40:28.295Z,3.47
2019-03-13T18:42:54.470Z,3.87
2019-03-13T18:45:25.181Z,3.90
2019-03-13T18:47:54.872Z,3.33
2019-03-13T18:50:25.382Z,3.37
2019-03-13T18:52:56.637Z,3.90
2019-03-13T18:55:35.342Z,2.97
2019-03-13T18:58:01.659Z,3.70
2019-03-13T19:00:31.652Z,3.00
2019-03-13T19:02:58.110Z,3.00
2019-03-13T19:05:27.817Z,4.80
2019-03-13T19:07:55.320Z,3.00
2019-03-13T19:10:26.051Z,3.50
2019-03-13T19:12:54.688Z,3.20
2019-03-13T19:15:22.452Z,2.10
2019-03-13T19:17:48.768Z,2.43
2019-03-13T19:20:19.285Z,2.60
2019-03-13T19:22:46.921Z,2.00
2019-03-13T19:25:17.527Z,2.47
2019-03-13T19:27:46.026Z,2.43
2019-03-13T19:30:30.543Z,2.60
2019-03-13T19:32:57.777Z,3.93
2019-03-13T19:35:24.631Z,2.70
2019-03-13T19:37:51.420Z,2.40
2019-03-13T19:40:19.644Z,2.30
2019-03-13T19:42:45.818Z,2.60
2019-03-13T19:45:14.523Z,2.20
2019-03-13T19:47:45.591Z,2.20
2019-03-13T19:50:14.032Z,2.27
2019-03-13T19:52:43.601Z,2.40
2019-03-13T19:55:12.916Z,1.90
2019-03-13T19:57:43.493Z,1.77
2019-03-13T20:00:16.242Z,1.83
2019-03-13T20:02:43.555Z,2.43
2019-03-13T20:05:13.849Z,1.83
2019-03-13T20:07:44.449Z,2.03
2019-03-13T20:10:19.536Z,3.90
2019-03-13T20:12:46.376Z,2.07
2019-03-13T20:15:18.945Z,2.30
2019-03-13T20:17:48.486Z,2.37
2019-03-13T20:20:20.356Z,2.33
2019-03-13T20:22:48.796Z,2.20
2019-03-13T20:25:17.888Z,2.17
2019-03-13T20:27:44.831Z,2.40
2019-03-13T20:30:17.342Z,2.30
2019-03-13T20:32:45.622Z,2.30
2019-03-13T20:35:14.697Z,2.17
2019-03-13T20:37:43.916Z,2.50
2019-03-13T20:40:15.232Z,2.50
2019-03-13T20:42:46.544Z,2.53
2019-03-13T20:45:15.365Z,2.57
2019-03-13T20:47:45.567Z,2.87
2019-03-13T20:50:14.126Z,2.60
2019-03-13T20:52:40.379Z,2.53
2019-03-13T20:55:12.047Z,2.30
2019-03-13T20:57:42.028Z,2.30
2019-03-13T21:00:21.752Z,2.40
2019-03-13T21:02:47.926Z,2.93
2019-03-13T21:05:16.003Z,2.03
2019-03-13T21:07:42.641Z,1.63
2019-03-13T21:10:13.535Z,1.93
2019-03-13T21:12:43.833Z,2.37
2019-03-13T21:15:26.405Z,1.80
2019-03-13T21:18:03.813Z,1.80
2019-03-13T21:20:24.325Z,1.80
2019-03-13T21:22:51.307Z,2.03
2019-03-13T21:25:24.963Z,2.00
2019-03-13T21:27:51.509Z,1.90
2019-03-13T21:30:27.692Z,1.70
2019-03-13T21:32:55.353Z,2.00
2019-03-13T21:35:23.024Z,2.17
2019-03-13T21:37:50.553Z,1.90
2019-03-13T21:40:18.498Z,1.70
2019-03-13T21:42:46.063Z,2.23
2019-03-13T21:45:22.152Z,2.13
2019-03-13T21:47:48.155Z,2.37
2019-03-13T21:50:20.397Z,2.73
2019-03-13T21:52:46.727Z,2.23
2019-03-13T21:55:14.535Z,2.53
2019-03-13T21:57:42.761Z,2.27
2019-03-13T22:00:21.239Z,1.90
2019-03-13T22:02:50.221Z,2.10
2019-03-13T22:05:25.708Z,2.47
2019-03-13T22:07:49.390Z,2.60
2019-03-13T22:10:17.614Z,2.27
2019-03-13T22:12:49.161Z,2.30
2019-03-13T22:15:22.507Z,2.87
2019-03-13T22:17:52.163Z,3.00
2019-03-13T22:20:25.150Z,2.70
2019-03-13T22:22:51.858Z,2.85
2019-03-13T22:25:21.261Z,2.73
2019-03-13T22:27:47.831Z,3.00
2019-03-13T22:30:19.854Z,2.87
2019-03-13T22:32:49.779Z,3.40
2019-03-13T22:35:23.711Z,3.30
2019-03-13T22:37:53.177Z,3.20
2019-03-13T22:40:23.541Z,3.35
2019-03-13T22:42:52.106Z,3.03
2019-03-13T22:45:28.546Z,3.30
2019-03-13T22:47:57.363Z,3.73
2019-03-13T22:50:24.204Z,3.00
2019-03-13T22:52:52.207Z,3.87
2019-03-13T22:55:19.208Z,2.60
2019-03-13T22:57:47.582Z,2.80
2019-03-13T23:00:55.351Z,3.47
2019-03-13T23:03:25.993Z,2.53
2019-03-13T23:05:54.638Z,2.73
2019-03-13T23:08:24.652Z,3.07
2019-03-13T23:10:53.952Z,2.87
2019-03-13T23:13:23.306Z,2.67
2019-03-13T23:15:51.865Z,3.00
2019-03-13T23:18:24.600Z,3.00
2019-03-13T23:20:54.822Z,2.60
2019-03-13T23:23:25.242Z,2.97
2019-03-13T23:26:00.409Z,3.00
2019-03-13T23:28:26.648Z,3.17
2019-03-13T23:30:57.121Z,3.30
2019-03-13T23:33:24.576Z,2.47
2019-03-13T23:35:52.356Z,3.00
2019-03-13T23:38:23.680Z,2.50
2019-03-13T23:40:53.940Z,2.67
2019-03-13T23:43:19.967Z,2.70
2019-03-13T23:45:46.079Z,4.93
2019-03-13T23:48:12.096Z,2.37
2019-03-13T23:50:38.625Z,3.43
2019-03-13T23:53:04.857Z,2.13
2019-03-13T23:55:31.685Z,2.50
2019-03-13T23:57:59.363Z,2.53
